Time;durP1;ratioP1;P1;durP2;ratioP2;P2;SDS_P1;SDS_P2;PMS_P1;PMS_P2;Temp;Humidity;BMP_temperature;BMP_pressure;BME280_temperature;BME280_humidity;BME280_pressure;Samples;Min_cycle;Max_cycle;Signal;HPM_P1;HPM_P2
2022/10/10 00:01:45;;;;;;;3.93;2.40;;;;;;;-145.23;100.00;58621.06;5035373;28;20585;-52
2022/10/10 00:04:11;;;;;;;2.97;2.50;;;;;;;-145.23;100.00;58621.06;5029500;28;20240;-52
2022/10/10 00:06:38;;;;;;;5.90;2.50;;;;;;;-145.23;100.00;58621.06;5024324;28;20237;-51
2022/10/10 00:09:05;;;;;;;5.87;2.13;;;;;;;-145.23;100.00;58621.06;5037226;28;20235;-54
2022/10/10 00:11:31;;;;;;;5.23;2.57;;;;;;;-145.23;100.00;58621.06;5034136;28;20312;-51
2022/10/10 00:13:58;;;;;;;6.27;2.70;;;;;;;-145.23;100.00;58621.06;5022706;28;20255;-52
2022/10/10 00:16:25;;;;;;;6.13;2.70;;;;;;;-145.23;100.00;58621.06;5016576;28;20235;-52
2022/10/10 00:18:53;;;;;;;4.90;3.30;;;;;;;-145.23;100.00;58621.06;5022582;28;20233;-51
2022/10/10 00:21:19;;;;;;;4.27;2.17;;;;;;;-145.23;100.00;58621.06;5022548;28;20240;-51
2022/10/10 00:23:46;;;;;;;3.23;2.50;;;;;;;-145.23;100.00;58621.06;5030089;28;20239;-51
2022/10/10 00:26:12;;;;;;;3.17;2.60;;;;;;;-145.23;100.00;58621.06;5018550;28;20240;-52
2022/10/10 00:28:39;;;;;;;8.13;2.53;;;;;;;-145.23;100.00;58621.06;5011765;28;20229;-52
2022/10/10 00:31:05;;;;;;;4.73;2.50;;;;;;;-145.23;100.00;58621.06;5026024;28;20236;-52
2022/10/10 00:33:32;;;;;;;3.67;2.83;;;;;;;-145.23;100.00;58621.06;5018826;28;20248;-52
2022/10/10 00:36:00;;;;;;;4.63;2.53;;;;;;;-145.23;100.00;58621.06;5027347;28;20232;-54
2022/10/10 00:38:26;;;;;;;5.73;2.83;;;;;;;-145.23;100.00;58621.06;5031549;28;20239;-52
2022/10/10 00:40:55;;;;;;;8.93;2.63;;;;;;;-145.23;100.00;58621.06;5021504;28;20438;-51
2022/10/10 00:43:22;;;;;;;4.37;2.37;;;;;;;-145.23;100.00;58621.06;5028259;28;20220;-52
2022/10/10 00:45:49;;;;;;;3.33;2.43;;;;;;;-145.23;100.00;58621.06;5019500;28;20248;-51
2022/10/10 00:48:16;;;;;;;6.97;2.80;;;;;;;-145.23;100.00;58621.06;5031574;28;20234;-51
2022/10/10 00:50:47;;;;;;;5.13;2.27;;;;;;;-145.23;100.00;58621.06;5020048;28;20290;-51
2022/10/10 00:53:17;;;;;;;4.07;2.30;;;;;;;-145.23;100.00;58621.06;5029212;28;20240;-51
2022/10/10 00:55:44;;;;;;;6.67;2.53;;;;;;;-145.23;100.00;58621.06;5024070;28;20236;-52
2022/10/10 00:58:11;;;;;;;8.20;3.07;;;;;;;-145.23;100.00;58621.06;5038919;28;20251;-51
2022/10/10 01:00:37;;;;;;;3.37;2.70;;;;;;;-145.23;100.00;58621.06;5030876;28;20233;-51
2022/10/10 01:03:04;;;;;;;5.03;2.77;;;;;;;-145.23;100.00;58621.06;5025664;28;20228;-51
2022/10/10 01:05:30;;;;;;;2.60;2.20;;;;;;;-145.23;100.00;58621.06;5025915;28;20244;-52
2022/10/10 01:07:57;;;;;;;3.80;2.17;;;;;;;-145.23;100.00;58621.06;5028959;28;20236;-51
2022/10/10 01:10:25;;;;;;;4.80;2.53;;;;;;;-145.23;100.00;58621.06;5030450;28;20263;-52
2022/10/10 01:13:07;;;;;;;3.27;2.43;;;;;;;-145.23;100.00;58621.06;5013379;28;20236;-51
2022/10/10 01:15:42;;;;;;;4.27;2.10;;;;;;;-145.23;100.00;58621.06;5010064;28;20225;-52
2022/10/10 01:18:17;;;;;;;4.70;2.20;;;;;;;-145.23;100.00;58621.06;5022407;28;20243;-51
2022/10/10 01:20:55;;;;;;;5.60;2.43;;;;;;;-145.23;100.00;58621.06;5016231;28;20244;-52
2022/10/10 01:23:53;;;;;;;5.63;2.60;;;;;;;-145.23;100.00;58621.06;5027697;28;20250;-52
2022/10/10 01:26:48;;;;;;;3.00;2.10;;;;;;;-145.23;100.00;58621.06;5006379;28;20236;-52
2022/10/10 01:29:22;;;;;;;3.10;2.13;;;;;;;-145.23;100.00;58621.06;5001053;28;20232;-52
2022/10/10 01:31:51;;;;;;;3.80;2.50;;;;;;;-145.23;100.00;58621.06;5007598;28;20236;-52
2022/10/10 01:34:22;;;;;;;4.10;2.40;;;;;;;-145.23;100.00;58621.06;5019672;28;20232;-53
2022/10/10 01:36:54;;;;;;;3.97;2.23;;;;;;;-145.23;100.00;58621.06;5014405;28;20583;-53
2022/10/10 01:39:26;;;;;;;8.50;2.53;;;;;;;-145.23;100.00;58621.06;5020306;28;20221;-52
2022/10/10 01:41:56;;;;;;;7.33;2.87;;;;;;;-145.23;100.00;58621.06;4998438;28;20244;-51
2022/10/10 01:44:24;;;;;;;6.23;2.63;;;;;;;-145.23;100.00;58621.06;5013132;28;20229;-52
2022/10/10 01:46:50;;;;;;;3.23;2.53;;;;;;;-145.23;100.00;58621.06;5023296;28;20228;-52
2022/10/10 01:49:17;;;;;;;6.93;2.73;;;;;;;-145.23;100.00;58621.06;5026127;28;20237;-53
2022/10/10 01:51:57;;;;;;;2.20;2.00;;;;;;;-145.23;100.00;58621.06;5016590;28;20248;-51
2022/10/10 01:54:32;;;;;;;3.73;2.40;;;;;;;-145.23;100.00;58621.06;5008011;28;20241;-51
2022/10/10 01:57:06;;;;;;;3.73;2.30;;;;;;;-145.23;100.00;58621.06;5006442;28;20220;-52
2022/10/10 01:59:44;;;;;;;2.90;2.53;;;;;;;-145.23;100.00;58621.06;5010768;28;20225;-53
2022/10/10 02:02:16;;;;;;;7.03;2.83;;;;;;;-145.23;100.00;58621.06;5007120;28;20237;-50
2022/10/10 02:04:46;;;;;;;4.67;2.20;;;;;;;-145.23;100.00;58621.06;5007794;28;20780;-52
2022/10/10 02:07:18;;;;;;;6.70;2.63;;;;;;;-145.23;100.00;58621.06;5007037;28;20248;-52
2022/10/10 02:09:45;;;;;;;4.83;2.67;;;;;;;-145.23;100.00;58621.06;5016899;28;20220;-52
2022/10/10 02:12:13;;;;;;;8.73;3.47;;;;;;;-145.23;100.00;58621.06;5024100;28;20231;-52
2022/10/10 02:14:43;;;;;;;3.17;2.23;;;;;;;-145.23;100.00;58621.06;5011174;28;20239;-53
2022/10/10 02:17:12;;;;;;;3.37;2.10;;;;;;;-145.23;100.00;58621.06;5019594;28;20320;-52
2022/10/10 02:19:43;;;;;;;3.77;2.80;;;;;;;-145.23;100.00;58621.06;5004790;28;20715;-51
2022/10/10 02:22:10;;;;;;;4.87;2.73;;;;;;;-145.23;100.00;58621.06;5006154;28;20239;-52
2022/10/10 02:24:37;;;;;;;4.77;2.23;;;;;;;-145.23;100.00;58621.06;5001635;28;20917;-51
2022/10/10 02:27:08;;;;;;;2.73;2.50;;;;;;;-145.23;100.00;58621.06;5006399;28;20233;-52
2022/10/10 02:29:38;;;;;;;5.77;2.40;;;;;;;-145.23;100.00;58621.06;5005890;28;20244;-52
2022/10/10 02:32:12;;;;;;;4.17;3.13;;;;;;;-145.23;100.00;58621.06;5006223;28;20253;-52
2022/10/10 02:34:42;;;;;;;6.37;2.80;;;;;;;-145.23;100.00;58621.06;5003501;28;20280;-52
2022/10/10 02:37:12;;;;;;;5.23;2.93;;;;;;;-145.23;100.00;58621.06;5006726;28;20715;-52
2022/10/10 02:39:41;;;;;;;4.00;2.37;;;;;;;-145.23;100.00;58621.06;5012651;28;20782;-52
2022/10/10 02:42:08;;;;;;;5.73;3.00;;;;;;;-145.23;100.00;58621.06;5000322;28;20678;-52
2022/10/10 02:44:36;;;;;;;4.80;2.83;;;;;;;-145.23;100.00;58621.06;5003403;28;20225;-52
2022/10/10 02:47:04;;;;;;;4.83;2.93;;;;;;;-145.23;100.00;58621.06;5005461;28;20244;-52
2022/10/10 02:49:34;;;;;;;4.80;2.70;;;;;;;-145.23;100.00;58621.06;5007266;28;20221;-52
2022/10/10 02:52:01;;;;;;;5.20;2.77;;;;;;;-145.23;100.00;58621.06;4998536;28;20345;-52
2022/10/10 02:54:27;;;;;;;4.00;2.67;;;;;;;-145.23;100.00;58621.06;5015455;28;20326;-51
2022/10/10 02:56:54;;;;;;;5.20;2.80;;;;;;;-145.23;100.00;58621.06;5010642;28;20698;-52
2022/10/10 02:59:21;;;;;;;4.90;3.23;;;;;;;-145.23;100.00;58621.06;5017427;28;20311;-50
2022/10/10 03:01:48;;;;;;;4.90;2.33;;;;;;;-145.23;100.00;58621.06;5018695;28;20240;-54
2022/10/10 03:04:16;;;;;;;5.87;2.60;;;;;;;-145.23;100.00;58621.06;5003245;28;20249;-51
2022/10/10 03:06:44;;;;;;;3.37;2.30;;;;;;;-145.23;100.00;58621.06;5019706;28;20260;-53
2022/10/10 03:09:11;;;;;;;4.37;3.00;;;;;;;-145.23;100.00;58621.06;5003509;28;20255;-50
2022/10/10 03:11:38;;;;;;;4.77;2.73;;;;;;;-145.23;100.00;58621.06;4998487;28;20319;-52
2022/10/10 03:14:05;;;;;;;4.87;2.40;;;;;;;-145.23;100.00;58621.06;5000710;28;20237;-52
2022/10/10 03:16:32;;;;;;;4.77;2.87;;;;;;;-145.23;100.00;58621.06;5005219;28;20256;-51
2022/10/10 03:18:59;;;;;;;3.73;2.40;;;;;;;-145.23;100.00;58621.06;4999154;28;20622;-51
2022/10/10 03:21:25;;;;;;;4.03;2.63;;;;;;;-145.23;100.00;58621.06;5005244;28;20237;-52
2022/10/10 03:23:53;;;;;;;2.83;2.57;;;;;;;-145.23;100.00;58621.06;5002402;28;20582;-52
2022/10/10 03:26:20;;;;;;;4.10;2.90;;;;;;;-145.23;100.00;58621.06;5002444;28;20229;-52
2022/10/10 03:28:47;;;;;;;5.47;2.67;;;;;;;-145.23;100.00;58621.06;5000553;28;20225;-51
2022/10/10 03:31:14;;;;;;;2.97;2.23;;;;;;;-145.23;100.00;58621.06;4993690;28;20232;-53
2022/10/10 03:33:41;;;;;;;5.87;3.20;;;;;;;-145.23;100.00;58621.06;5005033;28;20320;-54
2022/10/10 03:36:07;;;;;;;3.77;2.80;;;;;;;-145.23;100.00;58621.06;5020862;28;20245;-52
2022/10/10 03:38:34;;;;;;;4.33;2.50;;;;;;;-145.23;100.00;58621.06;5021581;28;20291;-52
2022/10/10 03:41:02;;;;;;;8.10;3.40;;;;;;;-145.23;100.00;58621.06;5003017;28;21135;-51
2022/10/10 03:43:29;;;;;;;4.93;2.87;;;;;;;-145.23;100.00;58621.06;5007457;28;20312;-50
2022/10/10 03:45:56;;;;;;;3.93;2.60;;;;;;;-145.23;100.00;58621.06;4998642;28;20287;-52
2022/10/10 03:48:23;;;;;;;4.57;3.03;;;;;;;-145.23;100.00;58621.06;4994002;28;20237;-52
2022/10/10 03:50:50;;;;;;;5.67;3.00;;;;;;;-145.23;100.00;58621.06;5001637;28;20237;-51
2022/10/10 03:53:17;;;;;;;7.07;2.93;;;;;;;-145.23;100.00;58621.06;5003689;28;20276;-52
2022/10/10 03:55:43;;;;;;;4.00;2.57;;;;;;;-145.23;100.00;58621.06;4995017;28;20342;-50
2022/10/10 03:58:12;;;;;;;4.60;2.30;;;;;;;-145.23;100.00;58621.06;5001760;28;20245;-52
2022/10/10 04:00:39;;;;;;;4.13;2.93;;;;;;;-145.23;100.00;58621.06;5000622;28;20229;-51
2022/10/10 04:03:07;;;;;;;7.83;2.93;;;;;;;-145.23;100.00;58621.06;4998550;28;20319;-52
2022/10/10 04:05:35;;;;;;;5.50;2.77;;;;;;;-145.23;100.00;58621.06;5019361;28;20237;-51
2022/10/10 04:08:02;;;;;;;5.00;3.63;;;;;;;-145.23;100.00;58621.06;5015121;28;20232;-52
2022/10/10 04:10:29;;;;;;;4.77;3.07;;;;;;;-145.23;100.00;58621.06;5016056;28;20728;-52
2022/10/10 04:12:57;;;;;;;4.93;2.87;;;;;;;-145.23;100.00;58621.06;5008284;28;20763;-51
2022/10/10 04:15:25;;;;;;;6.53;2.77;;;;;;;-145.23;100.00;58621.06;5015916;28;20236;-52
2022/10/10 04:17:53;;;;;;;2.83;2.30;;;;;;;-145.23;100.00;58621.06;4997608;28;20716;-51
2022/10/10 04:20:20;;;;;;;3.47;2.87;;;;;;;-145.23;100.00;58621.06;4998634;28;20229;-50
2022/10/10 04:22:47;;;;;;;4.77;2.70;;;;;;;-145.23;100.00;58621.06;4994708;28;20264;-52
2022/10/10 04:25:14;;;;;;;4.33;2.83;;;;;;;-145.23;100.00;58621.06;4998942;28;21755;-51
2022/10/10 04:27:42;;;;;;;4.93;2.33;;;;;;;-145.23;100.00;58621.06;4988937;28;20313;-51
2022/10/10 04:30:10;;;;;;;4.67;2.47;;;;;;;-145.23;100.00;58621.06;4997749;28;20229;-51
2022/10/10 04:32:39;;;;;;;4.27;2.83;;;;;;;-145.23;100.00;58621.06;4988350;28;20318;-50
2022/10/10 04:35:07;;;;;;;6.43;3.23;;;;;;;-145.23;100.00;58621.06;4992317;28;20255;-51
2022/10/10 04:37:34;;;;;;;3.70;3.00;;;;;;;-145.23;100.00;58621.06;5021563;28;20860;-51
2022/10/10 04:40:01;;;;;;;9.63;3.10;;;;;;;-145.23;100.00;58621.06;5018267;28;20239;-52
2022/10/10 04:42:28;;;;;;;2.60;2.40;;;;;;;-145.23;100.00;58621.06;5007434;28;20241;-53
2022/10/10 04:44:55;;;;;;;5.97;3.30;;;;;;;-145.23;100.00;58621.06;5004786;28;20810;-51
2022/10/10 04:47:23;;;;;;;9.67;3.47;;;;;;;-145.23;100.00;58621.06;4998414;28;20233;-52
2022/10/10 04:49:51;;;;;;;3.63;3.30;;;;;;;-145.23;100.00;58621.06;4996676;28;20225;-51
2022/10/10 04:52:18;;;;;;;5.40;3.00;;;;;;;-145.23;100.00;58621.06;4997764;28;20236;-52
2022/10/10 04:54:45;;;;;;;10.40;3.93;;;;;;;-145.23;100.00;58621.06;4992638;28;20500;-52
2022/10/10 04:57:12;;;;;;;5.67;2.70;;;;;;;-145.23;100.00;58621.06;4992857;28;20230;-52
2022/10/10 04:59:39;;;;;;;3.90;2.97;;;;;;;-145.23;100.00;58621.06;4999993;28;20256;-52
2022/10/10 05:02:06;;;;;;;3.47;3.00;;;;;;;-145.23;100.00;58621.06;5005321;28;20288;-52
2022/10/10 05:04:33;;;;;;;7.10;3.33;;;;;;;-145.23;100.00;58621.06;5010200;28;20237;-53
2022/10/10 05:07:02;;;;;;;4.07;3.23;;;;;;;-145.23;100.00;58621.06;5006527;28;20241;-53
2022/10/10 05:09:28;;;;;;;4.23;2.67;;;;;;;-145.23;100.00;58621.06;5003714;28;20268;-54
2022/10/10 05:11:55;;;;;;;3.63;2.70;;;;;;;-145.23;100.00;58621.06;5022041;28;20255;-52
2022/10/10 05:14:22;;;;;;;6.03;2.67;;;;;;;-145.23;100.00;58621.06;4991876;28;20257;-52
2022/10/10 05:16:49;;;;;;;7.60;2.73;;;;;;;-145.23;100.00;58621.06;4999705;28;20236;-53
2022/10/10 05:19:15;;;;;;;3.93;2.80;;;;;;;-145.23;100.00;58621.06;4992668;28;20237;-52
2022/10/10 05:21:42;;;;;;;6.27;3.20;;;;;;;-145.23;100.00;58621.06;5001814;28;20228;-52
2022/10/10 05:24:11;;;;;;;6.37;2.90;;;;;;;-145.23;100.00;58621.06;4992005;28;20242;-52
2022/10/10 05:26:37;;;;;;;7.70;3.57;;;;;;;-145.23;100.00;58621.06;5000270;28;20261;-52
2022/10/10 05:29:05;;;;;;;3.53;2.57;;;;;;;-145.23;100.00;58621.06;5001641;28;20795;-52
2022/10/10 05:31:33;;;;;;;4.90;2.97;;;;;;;-145.23;100.00;58621.06;4991841;28;20320;-53
2022/10/10 05:34:00;;;;;;;4.83;3.13;;;;;;;-145.23;100.00;58621.06;4997847;28;20720;-52
2022/10/10 05:36:27;;;;;;;4.60;3.60;;;;;;;-145.23;100.00;58621.06;5008358;28;20265;-52
2022/10/10 05:38:54;;;;;;;4.37;3.37;;;;;;;-145.23;100.00;58621.06;5009443;28;20233;-52
2022/10/10 05:41:22;;;;;;;7.37;3.33;;;;;;;-145.23;100.00;58621.06;4999987;28;20260;-52
2022/10/10 05:43:49;;;;;;;7.67;3.43;;;;;;;-145.23;100.00;58621.06;5001863;28;20401;-52
2022/10/10 05:46:16;;;;;;;6.33;3.40;;;;;;;-145.23;100.00;58621.06;4995224;28;20621;-52
2022/10/10 05:48:43;;;;;;;5.90;3.43;;;;;;;-145.23;100.00;58621.06;4991883;28;20902;-52
2022/10/10 05:51:11;;;;;;;5.10;3.67;;;;;;;-145.23;100.00;58621.06;5004489;28;20316;-52
2022/10/10 05:53:38;;;;;;;7.80;3.50;;;;;;;-145.23;100.00;58621.06;4995093;28;20320;-52
2022/10/10 05:56:06;;;;;;;9.17;3.63;;;;;;;-145.23;100.00;58621.06;5017675;28;20232;-51
2022/10/10 05:58:34;;;;;;;4.93;3.70;;;;;;;-145.23;100.00;58621.06;5019178;28;20226;-51
2022/10/10 06:01:03;;;;;;;4.73;3.20;;;;;;;-145.23;100.00;58621.06;5023032;28;20240;-51
2022/10/10 06:03:30;;;;;;;4.17;3.10;;;;;;;-145.23;100.00;58621.06;5016262;28;20233;-52
2022/10/10 06:05:56;;;;;;;6.00;2.83;;;;;;;-145.23;100.00;58621.06;5017106;28;20307;-51
2022/10/10 06:08:24;;;;;;;6.70;4.07;;;;;;;-145.23;100.00;58621.06;4998378;28;20236;-52
2022/10/10 06:10:51;;;;;;;4.03;3.10;;;;;;;-145.23;100.00;58621.06;5002306;28;20233;-51
2022/10/10 06:13:19;;;;;;;5.07;3.73;;;;;;;-145.23;100.00;58621.06;4999903;28;20229;-52
2022/10/10 06:15:50;;;;;;;6.03;3.47;;;;;;;-145.23;100.00;58621.06;4997966;28;20307;-52
2022/10/10 06:18:17;;;;;;;7.67;3.60;;;;;;;-145.23;100.00;58621.06;4996789;28;20241;-52
2022/10/10 06:20:44;;;;;;;4.13;3.27;;;;;;;-145.23;100.00;58621.06;4994274;28;20791;-52
2022/10/10 06:23:10;;;;;;;4.63;3.03;;;;;;;-145.23;100.00;58621.06;4997962;28;20253;-52
2022/10/10 06:25:37;;;;;;;6.03;3.80;;;;;;;-145.23;100.00;58621.06;5001430;28;20241;-51
2022/10/10 06:28:04;;;;;;;6.30;3.33;;;;;;;-145.23;100.00;58621.06;4998437;28;20233;-51
2022/10/10 06:30:33;;;;;;;9.93;3.70;;;;;;;-145.23;100.00;58621.06;4995517;28;20348;-51
2022/10/10 06:33:01;;;;;;;9.90;4.40;;;;;;;-145.23;100.00;58621.06;5001996;28;20778;-52
2022/10/10 06:35:28;;;;;;;6.50;3.57;;;;;;;-145.23;100.00;58621.06;5001027;28;20236;-52
2022/10/10 06:37:55;;;;;;;6.73;3.67;;;;;;;-145.23;100.00;58621.06;5006325;28;20692;-52
2022/10/10 06:40:22;;;;;;;6.53;3.20;;;;;;;-145.23;100.00;58621.06;4997811;28;20240;-52
2022/10/10 06:42:48;;;;;;;6.23;4.10;;;;;;;-145.23;100.00;58621.06;5005944;28;20406;-51
2022/10/10 06:45:15;;;;;;;5.17;3.70;;;;;;;-145.23;100.00;58621.06;4995617;28;20742;-51
2022/10/10 06:47:42;;;;;;;10.60;3.97;;;;;;;-145.23;100.00;58621.06;4998237;28;20646;-52
2022/10/10 06:50:10;;;;;;;3.73;2.93;;;;;;;-145.23;100.00;58621.06;5002292;28;20237;-51
2022/10/10 06:52:37;;;;;;;4.80;3.80;;;;;;;-145.23;100.00;58621.06;5016401;28;20233;-51
2022/10/10 06:55:04;;;;;;;7.73;3.43;;;;;;;-145.23;100.00;58621.06;4993428;28;20241;-52
2022/10/10 06:57:31;;;;;;;4.53;3.67;;;;;;;-145.23;100.00;58621.06;5001942;28;20264;-51
2022/10/10 06:59:58;;;;;;;5.10;4.03;;;;;;;-145.23;100.00;58621.06;4999528;28;20651;-52
2022/10/10 07:02:26;;;;;;;4.60;3.40;;;;;;;-145.23;100.00;58621.06;4999414;28;20229;-51
2022/10/10 07:04:52;;;;;;;6.50;3.23;;;;;;;-145.23;100.00;58621.06;5011121;28;20637;-51
2022/10/10 07:07:20;;;;;;;5.03;3.90;;;;;;;-145.23;100.00;58621.06;5012498;28;20259;-52
2022/10/10 07:09:47;;;;;;;4.93;3.27;;;;;;;-145.23;100.00;58621.06;4998506;28;20229;-52
2022/10/10 07:12:14;;;;;;;5.03;3.60;;;;;;;-145.23;100.00;58621.06;5002775;28;20401;-52
2022/10/10 07:14:41;;;;;;;7.63;3.57;;;;;;;-145.23;100.00;58621.06;5011702;28;20237;-52
2022/10/10 07:17:07;;;;;;;4.70;3.03;;;;;;;-145.23;100.00;58621.06;5020362;28;20241;-52
2022/10/10 07:19:36;;;;;;;5.07;3.23;;;;;;;-145.23;100.00;58621.06;5012212;28;20295;-52
2022/10/10 07:22:03;;;;;;;3.57;3.00;;;;;;;-145.23;100.00;58621.06;5015508;28;20251;-53
2022/10/10 07:24:32;;;;;;;5.07;3.50;;;;;;;-145.23;100.00;58621.06;5015789;28;20228;-52
2022/10/10 07:26:58;;;;;;;6.33;3.73;;;;;;;-145.23;100.00;58621.06;5012258;28;21067;-55
2022/10/10 07:29:27;;;;;;;5.57;3.53;;;;;;;-145.23;100.00;58621.06;5018233;28;20276;-51
2022/10/10 07:31:53;;;;;;;8.17;4.37;;;;;;;-145.23;100.00;58621.06;4998474;28;20308;-51
2022/10/10 07:34:20;;;;;;;4.33;3.33;;;;;;;-145.23;100.00;58621.06;4998291;28;20233;-52
2022/10/10 07:36:49;;;;;;;6.40;3.87;;;;;;;-145.23;100.00;58621.06;4998662;28;20935;-52
2022/10/10 07:39:19;;;;;;;5.20;3.43;;;;;;;-145.23;100.00;58621.06;5006594;28;20360;-52
2022/10/10 07:41:46;;;;;;;4.57;3.30;;;;;;;-145.23;100.00;58621.06;5004830;28;20637;-52
2022/10/10 07:44:13;;;;;;;7.00;3.30;;;;;;;-145.23;100.00;58621.06;5005542;28;20237;-52
2022/10/10 07:46:39;;;;;;;5.37;3.53;;;;;;;-145.23;100.00;58621.06;4994788;28;20662;-52
2022/10/10 07:49:06;;;;;;;3.73;3.10;;;;;;;-145.23;100.00;58621.06;5005683;28;20797;-52
2022/10/10 07:51:32;;;;;;;6.43;3.27;;;;;;;-145.23;100.00;58621.06;5020949;28;20240;-52
2022/10/10 07:53:59;;;;;;;6.30;2.90;;;;;;;-145.23;100.00;58621.06;5025368;28;20248;-53
2022/10/10 07:56:25;;;;;;;4.87;3.17;;;;;;;-145.23;100.00;58621.06;5007858;28;20766;-53
2022/10/10 07:58:53;;;;;;;7.60;3.20;;;;;;;-145.23;100.00;58621.06;5012069;28;20290;-51
2022/10/10 08:01:20;;;;;;;4.27;3.27;;;;;;;-145.23;100.00;58621.06;5013200;28;20228;-50
2022/10/10 08:03:47;;;;;;;2.80;2.50;;;;;;;-145.23;100.00;58621.06;5012152;28;20244;-52
2022/10/10 08:06:17;;;;;;;4.03;3.07;;;;;;;-145.23;100.00;58621.06;5010869;28;20229;-54
2022/10/10 08:08:44;;;;;;;5.63;3.13;;;;;;;-145.23;100.00;58621.06;5015615;28;20236;-52
2022/10/10 08:11:11;;;;;;;4.33;3.13;;;;;;;-145.23;100.00;58621.06;5013961;28;20233;-52
2022/10/10 08:13:39;;;;;;;4.93;3.30;;;;;;;-145.23;100.00;58621.06;4997057;28;20240;-53
2022/10/10 08:16:06;;;;;;;9.87;3.60;;;;;;;-145.23;100.00;58621.06;4998532;28;20751;-51
2022/10/10 08:18:33;;;;;;;3.93;3.03;;;;;;;-145.23;100.00;58621.06;5004304;28;20271;-52
2022/10/10 08:20:59;;;;;;;3.13;2.73;;;;;;;-145.23;100.00;58621.06;4999264;28;20240;-53
2022/10/10 08:23:26;;;;;;;4.67;3.27;;;;;;;-145.23;100.00;58621.06;4997085;28;20241;-51
2022/10/10 08:25:53;;;;;;;4.83;3.47;;;;;;;-145.23;100.00;58621.06;4993865;28;20234;-52
2022/10/10 08:28:19;;;;;;;6.60;3.83;;;;;;;-145.23;100.00;58621.06;5000149;28;20244;-56
2022/10/10 08:30:45;;;;;;;4.47;3.10;;;;;;;-145.23;100.00;58621.06;4995663;28;20225;-53
2022/10/10 08:33:13;;;;;;;2.83;2.40;;;;;;;-145.23;100.00;58621.06;5003596;28;20234;-52
2022/10/10 08:35:40;;;;;;;5.20;3.73;;;;;;;-145.23;100.00;58621.06;4999588;28;20233;-52
2022/10/10 08:38:07;;;;;;;6.80;3.07;;;;;;;-145.23;100.00;58621.06;4996969;28;20271;-52
2022/10/10 08:40:35;;;;;;;7.87;3.30;;;;;;;-145.23;100.00;58621.06;5000857;28;20240;-54
2022/10/10 08:43:06;;;;;;;5.20;3.60;;;;;;;-145.23;100.00;58621.06;4998004;28;20714;-53
2022/10/10 08:45:34;;;;;;;5.73;3.67;;;;;;;-145.23;100.00;58621.06;5013163;28;20236;-52
2022/10/10 08:48:02;;;;;;;3.47;2.80;;;;;;;-145.23;100.00;58621.06;5008963;28;20249;-52
2022/10/10 08:50:33;;;;;;;7.33;3.73;;;;;;;-145.23;100.00;58621.06;4999925;28;20233;-56
2022/10/10 08:53:02;;;;;;;4.80;2.83;;;;;;;-145.23;100.00;58621.06;4984244;28;20237;-53
2022/10/10 08:55:32;;;;;;;6.37;3.30;;;;;;;-145.23;100.00;58621.06;5007948;28;20237;-50
2022/10/10 08:58:01;;;;;;;5.63;3.07;;;;;;;-145.23;100.00;58621.06;4997888;28;20230;-51
2022/10/10 09:00:31;;;;;;;4.50;3.40;;;;;;;-145.23;100.00;58621.06;5002378;28;20240;-52
2022/10/10 09:02:59;;;;;;;3.35;2.72;;;;;;;-145.23;100.00;58621.06;4996204;28;20229;-53
2022/10/10 09:05:38;;;;;;;6.18;2.88;;;;;;;-145.23;100.00;58621.06;5004263;28;20228;-51
2022/10/10 09:08:19;;;;;;;3.55;2.38;;;;;;;-145.23;100.00;58621.06;4992535;28;20238;-52
2022/10/10 09:10:53;;;;;;;5.35;3.30;;;;;;;-145.23;100.00;58621.06;4999524;28;20232;-51
2022/10/10 09:13:27;;;;;;;4.90;2.40;;;;;;;-145.23;100.00;58621.06;4997592;28;20244;-51
2022/10/10 09:15:56;;;;;;;4.95;2.40;;;;;;;-145.23;100.00;58621.06;5012019;28;20244;-50
2022/10/10 09:18:32;;;;;;;5.13;3.38;;;;;;;-145.23;100.00;58621.06;5009653;28;20228;-51
2022/10/10 09:21:07;;;;;;;4.85;3.22;;;;;;;-145.23;100.00;58621.06;5023215;28;20903;-51
2022/10/10 09:23:36;;;;;;;3.92;2.35;;;;;;;-145.23;100.00;58621.06;5003503;28;20247;-52
2022/10/10 09:26:06;;;;;;;8.63;3.15;;;;;;;-145.23;100.00;58621.06;4994333;28;20912;-52
2022/10/10 09:28:38;;;;;;;6.07;3.25;;;;;;;-145.23;100.00;58621.06;4992011;28;20260;-52
2022/10/10 09:31:11;;;;;;;3.45;2.60;;;;;;;-145.23;100.00;58621.06;5000090;28;20237;-51
2022/10/10 09:33:41;;;;;;;2.40;2.17;;;;;;;-145.23;100.00;58621.06;5000914;28;20291;-52
2022/10/10 09:36:13;;;;;;;3.33;2.50;;;;;;;-145.23;100.00;58621.06;5000765;28;20238;-51
2022/10/10 09:38:42;;;;;;;4.88;2.35;;;;;;;-145.23;100.00;58621.06;4998737;28;20229;-51
2022/10/10 09:41:15;;;;;;;3.08;2.42;;;;;;;-145.23;100.00;58621.06;5009017;28;20233;-50
2022/10/10 09:43:41;;;;;;;3.42;2.42;;;;;;;-145.23;100.00;58621.06;5004818;28;20241;-52
2022/10/10 09:46:08;;;;;;;5.20;3.38;;;;;;;-145.23;100.00;58621.06;5003711;28;20766;-51
2022/10/10 09:48:37;;;;;;;3.03;2.60;;;;;;;-145.23;100.00;58621.06;5008229;28;20225;-51
2022/10/10 09:51:05;;;;;;;4.05;2.85;;;;;;;-145.23;100.00;58621.06;5006169;28;20225;-51
2022/10/10 09:53:33;;;;;;;10.40;2.90;;;;;;;-145.23;100.00;58621.06;5000854;28;20233;-52
2022/10/10 09:56:00;;;;;;;5.15;3.25;;;;;;;-145.23;100.00;58621.06;5013571;28;20236;-51
2022/10/10 09:58:31;;;;;;;6.90;2.88;;;;;;;-145.23;100.00;58621.06;5012364;28;20241;-51
2022/10/10 10:01:12;;;;;;;5.25;2.58;;;;;;;-145.23;100.00;58621.06;5010880;28;20236;-53
2022/10/10 10:03:38;;;;;;;3.80;2.95;;;;;;;-145.23;100.00;58621.06;5026166;28;20261;-52
2022/10/10 10:06:05;;;;;;;2.90;2.70;;;;;;;-145.23;100.00;58621.06;5026131;28;20244;-55
2022/10/10 10:08:34;;;;;;;4.10;3.55;;;;;;;-145.23;100.00;58621.06;5033917;28;20237;-50
2022/10/10 10:11:02;;;;;;;4.05;2.72;;;;;;;-145.23;100.00;58621.06;5028980;28;20275;-51
2022/10/10 10:13:30;;;;;;;3.75;3.00;;;;;;;-145.23;100.00;58621.06;5021831;28;20237;-51
2022/10/10 10:16:01;;;;;;;6.00;3.17;;;;;;;-145.23;100.00;58621.06;5003875;28;20232;-50
2022/10/10 10:18:29;;;;;;;3.05;2.70;;;;;;;-145.23;100.00;58621.06;5001815;28;20225;-51
2022/10/10 10:21:12;;;;;;;4.15;2.70;;;;;;;-145.23;100.00;58621.06;4999004;28;20236;-51
2022/10/10 10:23:43;;;;;;;5.10;3.35;;;;;;;-145.23;100.00;58621.06;4999061;28;20234;-51
2022/10/10 10:26:17;;;;;;;3.63;2.38;;;;;;;-145.23;100.00;58621.06;5003980;28;20308;-51
2022/10/10 10:28:44;;;;;;;4.22;3.17;;;;;;;-145.23;100.00;58621.06;4997721;28;20283;-52
2022/10/10 10:31:16;;;;;;;4.63;2.75;;;;;;;-145.23;100.00;58621.06;4993864;28;20233;-53
2022/10/10 10:33:51;;;;;;;5.07;2.50;;;;;;;-145.23;100.00;58621.06;5004612;28;20237;-53
2022/10/10 10:36:27;;;;;;;4.22;2.38;;;;;;;-145.23;100.00;58621.06;5013821;28;20228;-53
2022/10/10 10:39:03;;;;;;;4.57;2.80;;;;;;;-145.23;100.00;58621.06;5002789;28;20239;-51
2022/10/10 10:41:35;;;;;;;3.10;2.85;;;;;;;-145.23;100.00;58621.06;5004637;28;20738;-51
2022/10/10 10:44:11;;;;;;;3.60;2.50;;;;;;;-145.23;100.00;58621.06;5004831;28;20379;-51
2022/10/10 10:46:49;;;;;;;5.25;2.95;;;;;;;-145.23;100.00;58621.06;4998929;28;20230;-52
2022/10/10 10:49:21;;;;;;;4.57;2.40;;;;;;;-145.23;100.00;58621.06;5002739;28;20734;-52
2022/10/10 10:51:59;;;;;;;3.58;2.50;;;;;;;-145.23;100.00;58621.06;5007059;28;20233;-53
2022/10/10 10:54:38;;;;;;;5.25;2.60;;;;;;;-145.23;100.00;58621.06;5007775;28;20236;-51
2022/10/10 10:57:11;;;;;;;3.75;2.40;;;;;;;-145.23;100.00;58621.06;5010325;28;20233;-52
2022/10/10 10:59:49;;;;;;;4.53;2.72;;;;;;;-145.23;100.00;58621.06;5006095;28;20398;-52
2022/10/10 11:02:32;;;;;;;5.22;2.47;;;;;;;-145.23;100.00;58621.06;4999135;28;20240;-51
2022/10/10 11:05:07;;;;;;;2.45;2.10;;;;;;;-145.23;100.00;58621.06;5003837;28;20237;-51
2022/10/10 11:07:38;;;;;;;5.10;2.53;;;;;;;-145.23;100.00;58621.06;5014438;28;20223;-51
2022/10/10 11:10:11;;;;;;;4.78;2.03;;;;;;;-145.23;100.00;58621.06;5031737;28;21120;-52
2022/10/10 11:12:45;;;;;;;2.72;1.75;;;;;;;-145.23;100.00;58621.06;5014665;28;20240;-52
2022/10/10 11:15:17;;;;;;;2.85;2.20;;;;;;;-145.23;100.00;58621.06;4999875;28;20245;-51
2022/10/10 11:17:50;;;;;;;2.92;2.28;;;;;;;-145.23;100.00;58621.06;5004454;28;20824;-51